Погода Сиудад-Альтамиранона 2 недели

Герреро, Мексика

04 - 16 марта
  • 04марта
    Сегодня
    +21°
    +40°
    Облачно с прояснениями
    ВремяПогодаТемператураВлажностьДавлениеВетер, м/сВероятность осадков
    00:00Небольшая облачность+28°C47 %738 мм1.6 м/с1 %
    03:00Ясно и безоблачно+24°C59 %738 мм1.3 м/с1 %
    06:00Практически безоблачно+22°C63 %738 мм0.3 м/с1 %
    09:00Ясно и безоблачно+24°C45 %740 мм0.2 м/с1 %
    12:00Небольшая облачность+34°C25 %739 мм0.7 м/с1 %
    15:00Облачно с прояснениями+39°C18 %735 мм2.0 м/с1 %
    18:00Облачно с прояснениями+39°C19 %734 мм1.7 м/с1 %
    21:00Облачно с прояснениями+31°C37 %736 мм2.6 м/с1 %
  • 05марта
    Вторник
    +21°
    +41°
    Ясно и безоблачно
    ВремяПогодаТемператураВлажностьДавлениеВетер, м/сВероятность осадков
    00:00Облачно с прояснениями+28°C49 %738 мм1.7 м/с1 %
    03:00Ясно и безоблачно+25°C60 %737 мм1.0 м/с1 %
    06:00Ясно и безоблачно+23°C66 %737 мм0.1 м/с1 %
    09:00Ясно и безоблачно+24°C47 %739 мм0.3 м/с1 %
    12:00Ясно и безоблачно+34°C26 %738 мм0.6 м/с1 %
    15:00Ясно и безоблачно+40°C17 %734 мм1.4 м/с1 %
    18:00Ясно и безоблачно+39°C26 %733 мм1.0 м/с1 %
    21:00Ясно и безоблачно+31°C33 %735 мм2.5 м/с1 %
  • 06марта
    Среда
    +22°
    +41°
    Ясно и безоблачно
    ВремяПогодаТемператураВлажностьДавлениеВетер, м/сВероятность осадков
    00:00Ясно и безоблачно+28°C48 %736 мм1.7 м/с1 %
    03:00Ясно и безоблачно+25°C49 %736 мм0.7 м/с1 %
    06:00Ясно и безоблачно+23°C61 %736 мм0.4 м/с1 %
    09:00Ясно и безоблачно+24°C42 %738 мм0.4 м/с1 %
    12:00Ясно и безоблачно+34°C23 %738 мм1.3 м/с1 %
    15:00Ясно и безоблачно+40°C18 %735 мм1.8 м/с1 %
    18:00Ясно и безоблачно+39°C13 %734 мм1.9 м/с1 %
    21:00Ясно и безоблачно+31°C29 %735 мм2.7 м/с1 %
  • 07марта
    Четверг
    +21°
    +41°
    Ясно и безоблачно
    ВремяПогодаТемператураВлажностьДавлениеВетер, м/сВероятность осадков
    00:00Ясно и безоблачно+29°C37 %737 мм1.5 м/с1 %
    03:00Ясно и безоблачно+24°C55 %736 мм1.2 м/с1 %
    06:00Ясно и безоблачно+22°C62 %737 мм0.2 м/с1 %
    09:00Ясно и безоблачно+24°C45 %739 мм0.6 м/с1 %
    12:00Практически безоблачно+34°C18 %738 мм1.9 м/с1 %
    15:00Ясно и безоблачно+40°C14 %735 мм1.9 м/с1 %
    18:00Ясно и безоблачно+39°C11 %734 мм3.0 м/с1 %
    21:00Ясно и безоблачно+32°C24 %736 мм2.6 м/с1 %
Мы используем cookies
Соглашаюсь